createdAt,value
2023-02-03T00:00:32.271Z,100066.13
2023-02-03T00:03:02.106Z,100065.80
2023-02-03T00:05:30.868Z,100066.52
2023-02-03T00:07:59.787Z,100065.79
2023-02-03T00:10:29.107Z,100069.73
2023-02-03T00:12:58.470Z,100069.78
2023-02-03T00:15:27.522Z,100069.11
2023-02-03T00:17:56.249Z,100072.05
2023-02-03T00:20:26.337Z,100074.52
2023-02-03T00:22:55.435Z,100080.42
2023-02-03T00:25:23.809Z,100078.07
2023-02-03T00:27:52.726Z,100077.41
2023-02-03T00:30:21.355Z,100079.65
2023-02-03T00:32:51.322Z,100078.79
2023-02-03T00:35:20.227Z,100080.33
2023-02-03T00:37:55.765Z,100079.13
2023-02-03T00:40:26.767Z,100080.67
2023-02-03T00:43:00.103Z,100083.61
2023-02-03T00:45:28.864Z,100082.60
2023-02-03T00:47:58.896Z,100084.67
2023-02-03T00:50:27.783Z,100084.19
2023-02-03T00:52:58.172Z,100087.63
2023-02-03T00:55:27.818Z,100090.02
2023-02-03T00:57:56.491Z,100084.67
2023-02-03T01:00:25.292Z,100088.61
2023-02-03T01:02:54.724Z,100088.64
2023-02-03T04:20:32.411Z,100095.33
2023-02-03T04:23:01.325Z,100099.27
2023-02-03T04:25:29.907Z,100099.16
2023-02-03T04:27:58.617Z,100097.71
2023-02-03T04:30:27.410Z,100098.52
2023-02-03T04:32:56.698Z,100096.75
2023-02-03T04:35:25.555Z,100096.71
2023-02-03T04:37:54.417Z,100094.97
2023-02-03T04:40:22.829Z,100097.34
2023-02-03T04:42:52.320Z,100098.34
2023-02-03T04:45:21.007Z,100100.85
2023-02-03T04:47:54.470Z,100099.43
2023-02-03T04:50:23.483Z,100096.63
2023-02-03T04:52:52.499Z,100097.26
2023-02-03T04:55:21.018Z,100096.71
2023-02-03T04:57:49.806Z,100095.33
2023-02-03T05:00:18.917Z,100099.46
2023-02-03T05:02:47.706Z,100101.02
2023-02-03T05:05:17.355Z,100097.92
2023-02-03T05:07:48.388Z,100092.66
2023-02-03T05:10:18.023Z,100094.27
2023-02-03T05:12:47.446Z,100097.23
2023-02-03T05:15:20.783Z,100103.99
2023-02-03T05:17:57.248Z,100101.30
2023-02-03T05:20:27.165Z,100111.66
2023-02-03T05:22:56.014Z,100121.14
2023-02-03T05:25:24.528Z,100119.22
2023-02-03T05:27:54.193Z,100121.21
2023-02-03T05:30:22.832Z,100127.19
2023-02-03T05:32:53.262Z,100129.20
2023-02-03T05:35:21.677Z,100129.54
2023-02-03T05:37:50.266Z,100134.69
2023-02-03T05:40:37.298Z,100141.74
2023-02-03T05:43:06.112Z,100147.92
2023-02-03T05:45:35.157Z,100151.36
2023-02-03T05:48:04.047Z,100154.96
2023-02-03T05:50:38.169Z,100161.97
2023-02-03T05:53:13.027Z,100163.52
2023-02-03T05:55:41.596Z,100164.38
2023-02-03T05:58:09.831Z,100166.10
2023-02-03T06:00:41.599Z,100165.41
2023-02-03T06:03:11.014Z,100164.03
2023-02-03T06:05:41.378Z,100167.48
2023-02-03T06:08:09.912Z,100171.58
2023-02-03T06:10:38.964Z,100167.77
2023-02-03T06:13:13.743Z,100169.50
2023-02-03T06:15:42.364Z,100169.30
2023-02-03T06:18:15.733Z,100172.91
2023-02-03T06:20:45.060Z,100170.46
2023-02-03T06:23:13.619Z,100169.23
2023-02-03T06:25:44.678Z,100172.29
2023-02-03T06:28:14.206Z,100167.60
2023-02-03T06:30:44.052Z,100169.45
2023-02-03T06:33:12.851Z,100171.31
2023-02-03T06:35:41.084Z,100175.73
2023-02-03T06:38:09.814Z,100181.02
2023-02-03T06:40:39.528Z,100181.83
2023-02-03T06:43:08.066Z,100186.42
2023-02-03T06:45:38.755Z,100191.88
2023-02-03T06:48:07.876Z,100194.11
2023-02-03T06:50:37.034Z,100194.58
2023-02-03T06:53:05.902Z,100188.88
2023-02-03T06:55:34.454Z,100190.56
2023-02-03T06:58:02.815Z,100191.56
2023-02-03T07:00:36.603Z,100189.81
2023-02-03T07:03:05.971Z,100193.58
2023-02-03T07:05:36.996Z,100192.70
2023-02-03T07:08:06.618Z,100198.67
2023-02-03T07:10:34.964Z,100200.55
2023-02-03T07:13:05.866Z,100205.32
2023-02-03T07:15:38.029Z,100205.30
2023-02-03T07:18:06.396Z,100203.71
2023-02-03T07:20:36.075Z,100199.06
2023-02-03T07:23:05.076Z,100201.98
2023-02-03T07:25:34.206Z,100202.44
2023-02-03T07:28:03.768Z,100199.85
2023-02-03T07:30:32.640Z,100205.35
2023-02-03T07:33:02.541Z,100205.71
2023-02-03T07:35:30.859Z,100207.83
2023-02-03T07:37:59.138Z,100208.58
2023-02-03T07:40:27.685Z,100213.30
2023-02-03T07:42:56.169Z,100218.16
2023-02-03T07:45:27.619Z,100222.48
2023-02-03T07:47:56.441Z,100223.05
2023-02-03T07:50:25.376Z,100223.41
2023-02-03T07:52:53.783Z,100222.25
2023-02-03T07:55:22.955Z,100223.48
2023-02-03T07:57:53.110Z,100224.91
2023-02-03T08:00:22.251Z,100229.09
2023-02-03T08:02:50.930Z,100229.30
2023-02-03T08:05:19.271Z,100229.30
2023-02-03T08:07:47.695Z,100229.11
2023-02-03T08:10:17.991Z,100231.48
2023-02-03T08:12:47.228Z,100228.02
2023-02-03T08:15:17.431Z,100227.98
2023-02-03T08:17:46.545Z,100232.29
2023-02-03T08:20:16.722Z,100234.71
2023-02-03T08:22:45.571Z,100232.86
2023-02-03T08:25:13.819Z,100234.42
2023-02-03T08:27:42.301Z,100241.84
2023-02-03T08:30:13.351Z,100243.24
2023-02-03T08:32:41.748Z,100243.94
2023-02-03T08:35:10.535Z,100244.95
2023-02-03T08:37:38.867Z,100248.60
2023-02-03T08:40:07.585Z,100251.57
2023-02-03T08:42:36.951Z,100254.21
2023-02-03T08:45:05.740Z,100257.89
2023-02-03T08:47:34.273Z,100263.58
2023-02-03T08:50:04.522Z,100260.64
2023-02-03T08:52:33.000Z,100265.97
2023-02-03T08:55:01.225Z,100266.14
2023-02-03T08:57:36.283Z,100269.58
2023-02-03T09:00:05.537Z,100272.52
2023-02-03T09:02:33.871Z,100269.45
2023-02-03T09:05:02.329Z,100272.22
2023-02-03T09:07:31.936Z,100274.31
2023-02-03T09:10:00.600Z,100275.38
2023-02-03T09:12:29.069Z,100282.11
2023-02-03T09:14:57.383Z,100280.39
2023-02-03T09:17:25.879Z,100281.77
2023-02-03T09:19:54.247Z,100281.96
2023-02-03T09:22:22.578Z,100278.02
2023-02-03T09:24:53.664Z,100279.44
2023-02-03T09:27:22.138Z,100280.12
2023-02-03T09:29:50.588Z,100286.14
2023-02-03T09:32:19.367Z,100282.70
2023-02-03T09:34:47.631Z,100281.30
2023-02-03T09:37:15.929Z,100279.22
2023-02-03T09:39:44.274Z,100280.23
2023-02-03T09:42:54.358Z,100281.55
2023-02-03T09:45:27.030Z,100280.27
2023-02-03T09:48:00.965Z,100277.64
2023-02-03T09:50:31.279Z,100281.73
2023-02-03T09:53:00.104Z,100278.73
2023-02-03T09:55:31.028Z,100278.85
2023-02-03T09:58:28.551Z,100270.90
2023-02-03T10:01:05.769Z,100268.08
2023-02-03T10:03:42.023Z,100267.67
2023-02-03T10:06:13.268Z,100271.23
2023-02-03T12:45:06.094Z,100229.39
2023-02-03T12:47:40.204Z,100229.85
2023-02-03T12:50:27.880Z,100227.59
2023-02-03T12:52:57.696Z,100226.14
2023-02-03T12:55:39.354Z,100227.56
2023-02-03T12:58:12.213Z,100227.52
2023-02-03T13:01:05.543Z,100233.45
2023-02-03T13:03:39.478Z,100232.99
2023-02-03T13:06:12.891Z,100230.43
2023-02-03T13:08:51.161Z,100227.11
2023-02-03T13:11:49.205Z,100227.91
2023-02-03T13:14:32.888Z,100229.10
2023-02-03T13:17:11.753Z,100226.27
2023-02-03T13:20:14.446Z,100223.74
2023-02-03T13:22:42.972Z,100220.02
2023-02-03T13:25:36.408Z,100219.70
2023-02-03T13:28:40.140Z,100221.45
2023-02-03T13:31:46.098Z,100221.46
2023-02-03T13:34:39.346Z,100226.95
2023-02-03T13:37:17.145Z,100224.89
2023-02-03T13:40:03.835Z,100225.39
2023-02-03T13:42:33.646Z,100224.02
2023-02-03T13:45:49.876Z,100224.06
2023-02-03T13:48:24.456Z,100222.23
2023-02-03T13:51:03.746Z,100225.94
2023-02-03T13:53:35.702Z,100223.91
2023-02-03T13:56:09.752Z,100227.90
2023-02-03T13:58:40.228Z,100226.02
2023-02-03T14:01:29.759Z,100228.45
2023-02-03T14:03:58.311Z,100229.21
2023-02-03T14:06:39.879Z,100231.20
2023-02-03T14:09:30.359Z,100225.30
2023-02-03T14:12:19.744Z,100230.92
2023-02-03T14:14:50.945Z,100229.98
2023-02-03T14:17:34.564Z,100228.31
2023-02-03T14:20:04.739Z,100231.16
2023-02-03T14:22:35.693Z,100229.31
2023-02-03T14:25:05.958Z,100230.90
2023-02-03T14:27:34.366Z,100227.83
2023-02-03T14:30:22.987Z,100230.41
2023-02-03T14:32:58.897Z,100230.58
2023-02-03T14:35:36.352Z,100226.33
2023-02-03T14:38:12.136Z,100227.08
2023-02-03T14:41:05.802Z,100228.36
2023-02-03T14:44:04.842Z,100227.38
2023-02-03T14:47:38.276Z,100223.83
2023-02-03T14:50:25.294Z,100222.83
2023-02-03T14:53:15.306Z,100220.49
2023-02-03T14:56:24.541Z,100219.61
2023-02-03T14:59:03.058Z,100215.00
2023-02-03T15:01:37.961Z,100220.88
2023-02-03T15:04:12.407Z,100226.25
2023-02-03T15:06:48.490Z,100226.64
2023-02-03T15:09:23.615Z,100228.77
2023-02-03T15:11:52.087Z,100233.79
2023-02-03T15:14:25.384Z,100232.42
2023-02-03T15:17:13.689Z,100233.65
2023-02-03T15:19:42.744Z,100230.89
2023-02-03T15:22:25.996Z,100236.72
2023-02-03T15:24:57.317Z,100239.81
2023-02-03T15:27:30.046Z,100239.42
2023-02-03T15:29:59.350Z,100242.30
2023-02-03T15:32:41.457Z,100236.75
2023-02-03T15:35:18.478Z,100237.23
2023-02-03T15:37:50.673Z,100238.95
2023-02-03T15:40:20.962Z,100242.70
2023-02-03T15:42:59.717Z,100246.48
2023-02-03T15:45:29.364Z,100248.58
2023-02-03T15:48:04.368Z,100251.67
2023-02-03T15:50:43.232Z,100247.36
2023-02-03T15:53:46.679Z,100254.41
2023-02-03T15:56:35.825Z,100252.56
2023-02-03T15:59:05.127Z,100255.88
2023-02-03T16:01:33.660Z,100255.55
2023-02-03T16:04:02.838Z,100256.27
2023-02-03T16:06:36.160Z,100252.54
2023-02-03T16:09:26.900Z,100253.98
2023-02-03T16:12:34.691Z,100255.58
2023-02-03T16:15:03.288Z,100255.27
2023-02-03T16:17:36.817Z,100257.70
2023-02-03T16:20:13.025Z,100257.39
2023-02-03T16:23:00.359Z,100258.45
2023-02-03T16:25:31.681Z,100260.88
2023-02-03T16:28:19.688Z,100258.48
2023-02-03T16:31:20.907Z,100259.38
2023-02-03T16:34:09.198Z,100258.89
2023-02-03T16:37:01.319Z,100257.36
2023-02-03T16:39:49.038Z,100258.79
2023-02-03T16:42:38.330Z,100256.80
2023-02-03T16:45:33.991Z,100254.42
2023-02-03T16:48:22.395Z,100254.45
2023-02-03T16:50:54.274Z,100254.12
2023-02-03T16:53:30.631Z,100255.85
2023-02-03T16:56:01.613Z,100258.10
2023-02-03T16:58:31.077Z,100254.16
2023-02-03T17:01:02.354Z,100257.77
2023-02-03T17:03:33.224Z,100257.27
2023-02-03T17:06:07.553Z,100255.44
2023-02-03T17:08:36.371Z,100251.84
2023-02-03T17:11:15.826Z,100254.48
2023-02-03T17:13:44.527Z,100248.33
2023-02-03T17:16:23.537Z,100250.40
2023-02-03T17:18:52.279Z,100248.73
2023-02-03T17:21:23.019Z,100248.08
2023-02-03T17:23:51.870Z,100250.51
2023-02-03T17:26:20.141Z,100252.94
2023-02-03T17:28:48.977Z,100249.66
2023-02-03T17:31:18.831Z,100251.39
2023-02-03T17:33:51.115Z,100246.23
2023-02-03T17:36:20.603Z,100247.60
2023-02-03T17:55:32.876Z,100254.39
2023-02-03T17:58:02.059Z,100255.94
2023-02-03T18:00:32.047Z,100254.22
2023-02-03T18:07:04.716Z,100257.31
2023-02-03T18:09:33.044Z,100256.11
2023-02-03T18:12:03.796Z,100257.65
2023-02-03T18:14:32.911Z,100256.94
2023-02-03T18:17:01.189Z,100254.35
2023-02-03T18:19:33.565Z,100257.46
2023-02-03T18:22:01.797Z,100254.53
2023-02-03T18:24:30.752Z,100255.55
2023-02-03T18:27:00.983Z,100256.21
2023-02-03T18:29:30.370Z,100254.98
2023-02-03T18:32:02.026Z,100254.27
2023-02-03T18:34:30.685Z,100248.55
2023-02-03T18:36:59.134Z,100245.61
2023-02-03T18:39:27.464Z,100244.75
2023-02-03T18:41:56.034Z,100244.05
2023-02-03T18:44:27.125Z,100242.86
2023-02-03T18:46:55.380Z,100240.48
2023-02-03T18:49:27.572Z,100241.02
2023-02-03T18:51:55.789Z,100237.42
2023-02-03T18:54:24.280Z,100236.27
2023-02-03T18:56:52.958Z,100236.95
2023-02-03T18:59:21.338Z,100229.39
2023-02-03T19:01:49.527Z,100228.91
2023-02-03T19:04:17.829Z,100228.44
2023-02-03T19:06:47.767Z,100230.34
2023-02-03T19:09:18.161Z,100233.25
2023-02-03T19:11:46.738Z,100231.00
2023-02-03T19:14:18.249Z,100230.98
2023-02-03T19:16:48.098Z,100228.75
2023-02-03T19:19:16.387Z,100228.58
2023-02-03T19:21:48.838Z,100225.89
2023-02-03T19:24:17.741Z,100220.79
2023-02-03T19:26:46.222Z,100219.77
2023-02-03T19:29:14.893Z,100219.78
2023-02-03T19:31:43.226Z,100224.43
2023-02-03T19:34:18.823Z,100220.67
2023-02-03T19:36:48.725Z,100224.64
2023-02-03T19:39:18.841Z,100223.81
2023-02-03T19:41:48.076Z,100224.20
2023-02-03T19:44:16.697Z,100223.53
2023-02-03T19:46:46.101Z,100221.84
2023-02-03T19:49:15.450Z,100223.73
2023-02-03T19:51:46.811Z,100222.35
2023-02-03T19:54:15.890Z,100220.09
2023-02-03T19:56:45.614Z,100220.94
2023-02-03T19:59:16.254Z,100221.83
2023-02-03T20:01:44.587Z,100221.16
2023-02-03T20:04:15.615Z,100219.42
2023-02-03T20:06:44.203Z,100219.78
2023-02-03T20:09:12.562Z,100216.55
2023-02-03T20:15:21.796Z,100211.11
2023-02-03T20:17:51.950Z,100213.02
2023-02-03T20:20:20.961Z,100217.36
2023-02-03T20:22:49.670Z,100214.31
2023-02-03T20:29:01.252Z,100213.79
2023-02-03T20:31:30.230Z,100213.77
2023-02-03T20:33:59.215Z,100214.61
2023-02-03T20:36:31.349Z,100214.58
2023-02-03T20:38:59.816Z,100215.23
2023-02-03T20:41:29.330Z,100214.34
2023-02-03T20:43:58.860Z,100213.64
2023-02-03T20:46:30.874Z,100214.85
2023-02-03T20:49:37.749Z,100213.31
2023-02-03T20:52:58.851Z,100220.17
2023-02-03T20:55:27.075Z,100222.09
2023-02-03T20:57:56.985Z,100222.40
2023-02-03T21:00:28.203Z,100224.46
2023-02-03T21:03:15.500Z,100223.27
2023-02-03T22:51:00.912Z,100211.81
2023-02-03T22:53:27.826Z,100212.84
2023-02-03T22:55:54.780Z,100208.34
2023-02-03T22:58:21.635Z,100205.57
2023-02-03T23:00:48.919Z,100197.66
2023-02-03T23:03:15.918Z,100194.95
2023-02-03T23:05:42.707Z,100194.65
2023-02-03T23:08:09.794Z,100194.51
2023-02-03T23:10:36.629Z,100194.69
2023-02-03T23:13:06.903Z,100195.42
2023-02-03T23:15:35.315Z,100188.92
2023-02-03T23:18:02.845Z,100190.69
2023-02-03T23:20:33.425Z,100186.08
2023-02-03T23:23:00.750Z,100190.23
2023-02-03T23:25:27.993Z,100195.89
2023-02-03T23:27:55.125Z,100194.86
2023-02-03T23:30:22.055Z,100200.91
2023-02-03T23:32:49.025Z,100199.91
2023-02-03T23:35:35.794Z,100199.75
2023-02-03T23:38:02.854Z,100202.52
2023-02-03T23:40:30.376Z,100204.09
2023-02-03T23:42:57.809Z,100209.43
2023-02-03T23:45:24.613Z,100207.73
2023-02-03T23:47:51.485Z,100209.98
2023-02-03T23:50:19.541Z,100206.91
2023-02-03T23:52:47.308Z,100208.13
2023-02-03T23:55:15.624Z,100208.81
2023-02-03T23:57:43.214Z,100200.23
